Time;durP1;ratioP1;P1;durP2;ratioP2;P2;SDS_P1;SDS_P2;PMS_P1;PMS_P2;Temp;Humidity;BMP_temperature;BMP_pressure;BME280_temperature;BME280_humidity;BME280_pressure;Samples;Min_cycle;Max_cycle;Signal;HPM_P1;HPM_P2
2020/12/25 00:01:45;;;;;;;;;;;;;;;9.38;59.92;100872.44;6005822;23;97383;-87
2020/12/25 00:04:11;;;;;;;;;;;;;;;10.05;57.47;100873.88;6009338;23;99409;-85
2020/12/25 00:06:37;;;;;;;;;;;;;;;9.60;58.77;100873.50;6014208;23;98533;-89
2020/12/25 00:09:05;;;;;;;;;;;;;;;9.87;58.09;100883.25;6014950;23;96681;-87
2020/12/25 00:11:32;;;;;;;;;;;;;;;9.29;60.22;100883.22;6010481;23;96624;-86
2020/12/25 00:13:58;;;;;;;;;;;;;;;9.20;60.08;100885.19;6009745;23;99678;-88
2020/12/25 00:16:24;;;;;;;;;;;;;;;9.43;60.28;100881.06;6005006;23;98101;-86
2020/12/25 00:18:50;;;;;;;;;;;;;;;9.52;59.83;100883.41;6008260;23;96672;-86
2020/12/25 00:21:17;;;;;;;;;;;;;;;8.91;61.74;100889.53;6009567;23;97121;-85
2020/12/25 00:23:45;;;;;;;;;;;;;;;8.91;62.22;100892.19;6008043;23;97810;-86
2020/12/25 00:26:20;;;;;;;;;;;;;;;9.54;60.46;100884.25;6006091;23;98190;-85
2020/12/25 00:28:46;;;;;;;;;;;;;;;8.98;61.78;100894.59;6005063;23;96829;-85
2020/12/25 00:31:12;;;;;;;;;;;;;;;8.61;62.65;100899.94;6004846;23;97121;-84
2020/12/25 00:33:38;;;;;;;;;;;;;;;8.37;64.09;100890.03;6004513;23;101060;-87
2020/12/25 00:36:04;;;;;;;;;;;;;;;8.32;63.79;100900.66;6005301;23;99933;-86
2020/12/25 00:38:30;;;;;;;;;;;;;;;8.14;64.59;100903.69;6005075;23;96759;-87
2020/12/25 00:40:56;;;;;;;;;;;;;;;8.01;65.29;100900.47;6003929;23;96844;-89
2020/12/25 00:43:24;;;;;;;;;;;;;;;8.66;63.25;100907.75;5980657;23;98771;-89
2020/12/25 00:45:50;;;;;;;;;;;;;;;8.73;62.37;100914.56;6009532;23;100475;-88
2020/12/25 00:48:16;;;;;;;;;;;;;;;8.95;61.64;100918.41;6007841;23;97331;-86
2020/12/25 00:50:42;;;;;;;;;;;;;;;8.01;64.23;100924.16;6007605;23;96824;-85
2020/12/25 00:53:08;;;;;;;;;;;;;;;7.59;66.67;100928.56;6010046;23;97945;-87
2020/12/25 00:55:34;;;;;;;;;;;;;;;8.03;64.99;100929.38;6013348;23;96902;-86
2020/12/25 00:58:00;;;;;;;;;;;;;;;8.50;63.61;100930.09;6020327;23;96719;-87
2020/12/25 01:00:27;;;;;;;;;;;;;;;9.03;61.29;100939.28;6016864;23;97152;-82
2020/12/25 01:02:53;;;;;;;;;;;;;;;7.75;65.36;100942.25;6012295;23;99941;-85
2020/12/25 01:05:19;;;;;;;;;;;;;;;8.63;63.16;100942.06;6010301;23;98092;-86
2020/12/25 01:07:45;;;;;;;;;;;;;;;8.84;61.68;100945.94;6010592;23;96709;-87
2020/12/25 01:10:11;;;;;;;;;;;;;;;8.69;62.78;100948.03;6011732;23;97103;-88
2020/12/25 01:12:36;;;;;;;;;;;;;;;8.46;63.16;100953.00;6015523;23;96984;-88
2020/12/25 01:15:02;;;;;;;;;;;;;;;8.01;65.05;100968.00;6018834;23;97861;-86
2020/12/25 01:17:30;;;;;;;;;;;;;;;8.47;63.33;100969.69;6018825;23;96592;-85
2020/12/25 01:19:57;;;;;;;;;;;;;;;8.09;65.02;100971.34;6013168;23;96845;-85
2020/12/25 01:22:23;;;;;;;;;;;;;;;8.54;62.38;100972.09;6012957;23;101423;-87
2020/12/25 01:24:49;;;;;;;;;;;;;;;8.52;62.84;100970.44;6012321;23;98955;-88
2020/12/25 01:27:15;;;;;;;;;;;;;;;8.14;64.13;100980.00;5987543;23;96828;-86
2020/12/25 01:29:41;;;;;;;;;;;;;;;8.48;63.15;100993.31;6004795;23;97067;-88
2020/12/25 01:32:08;;;;;;;;;;;;;;;7.84;64.08;100985.94;6003569;23;99521;-88
2020/12/25 01:34:34;;;;;;;;;;;;;;;7.84;64.81;100997.31;6002711;23;99854;-87
2020/12/25 01:37:00;;;;;;;;;;;;;;;7.78;64.94;100993.94;6002800;23;96776;-86
2020/12/25 01:39:26;;;;;;;;;;;;;;;8.67;62.18;100989.34;6004195;23;97573;-86
2020/12/25 01:41:52;;;;;;;;;;;;;;;8.34;62.24;101001.53;6003891;23;101476;-86
2020/12/25 01:44:18;;;;;;;;;;;;;;;8.68;61.45;100995.50;5979324;23;97992;-86
2020/12/25 01:46:45;;;;;;;;;;;;;;;8.11;62.33;101005.53;6005990;23;96780;-87
2020/12/25 01:49:11;;;;;;;;;;;;;;;7.73;63.65;101003.69;6003079;23;96792;-87
2020/12/25 01:51:39;;;;;;;;;;;;;;;7.61;64.11;100997.75;6003871;23;99251;-86
2020/12/25 01:54:05;;;;;;;;;;;;;;;8.10;62.35;101002.03;6002140;23;100026;-88
2020/12/25 01:56:31;;;;;;;;;;;;;;;7.79;62.94;100995.69;6003694;23;97287;-86
2020/12/25 01:58:57;;;;;;;;;;;;;;;8.08;62.66;101000.31;6003230;23;97285;-86
2020/12/25 02:01:23;;;;;;;;;;;;;;;7.73;63.77;100993.19;6003858;23;98082;-89
2020/12/25 02:03:51;;;;;;;;;;;;;;;7.98;62.24;100994.41;6006388;23;100963;-88
2020/12/25 02:06:17;;;;;;;;;;;;;;;8.14;61.97;100995.81;6002702;23;96761;-86
2020/12/25 02:08:44;;;;;;;;;;;;;;;7.86;61.97;101006.06;6003629;23;96885;-87
2020/12/25 02:11:11;;;;;;;;;;;;;;;7.73;61.73;101004.56;6011098;23;99217;-84
2020/12/25 02:13:38;;;;;;;;;;;;;;;7.75;62.12;101009.78;6008495;23;99539;-87
2020/12/25 02:16:04;;;;;;;;;;;;;;;8.52;59.42;101015.22;6002256;23;96798;-86
2020/12/25 02:18:33;;;;;;;;;;;;;;;8.49;58.36;101020.53;6010661;23;96837;-85
2020/12/25 02:21:02;;;;;;;;;;;;;;;8.27;58.18;101010.44;6013276;23;98242;-85
2020/12/25 02:23:27;;;;;;;;;;;;;;;7.87;59.14;101027.97;6024753;23;98051;-85
2020/12/25 02:25:54;;;;;;;;;;;;;;;8.08;58.52;101024.00;6025387;23;96402;-87
2020/12/25 02:28:21;;;;;;;;;;;;;;;7.89;58.47;101028.78;6026640;23;96436;-88
2020/12/25 02:30:47;;;;;;;;;;;;;;;7.66;58.45;101031.88;6026485;23;99956;-87
2020/12/25 02:33:13;;;;;;;;;;;;;;;7.36;59.61;101028.03;6025270;23;99010;-87
2020/12/25 02:35:39;;;;;;;;;;;;;;;7.46;59.07;101028.75;6024972;23;96378;-87
2020/12/25 02:38:06;;;;;;;;;;;;;;;7.74;58.37;101031.75;6022508;23;96668;-87
2020/12/25 02:40:32;;;;;;;;;;;;;;;7.16;59.59;101035.41;6023473;23;99494;-86
2020/12/25 02:42:58;;;;;;;;;;;;;;;7.54;58.09;101029.50;6015862;23;98269;-87
2020/12/25 02:45:24;;;;;;;;;;;;;;;6.87;59.91;101043.78;6011694;23;96684;-87
2020/12/25 02:47:50;;;;;;;;;;;;;;;7.11;59.00;101038.13;6013394;23;96668;-86
2020/12/25 02:50:16;;;;;;;;;;;;;;;7.52;58.26;101036.53;5988048;23;98246;-86
2020/12/25 02:52:42;;;;;;;;;;;;;;;7.13;58.16;101036.34;6023582;23;98353;-85
2020/12/25 02:55:08;;;;;;;;;;;;;;;7.58;57.89;101039.91;6024450;23;97145;-86
2020/12/25 02:57:34;;;;;;;;;;;;;;;7.22;57.30;101051.06;6024878;23;96594;-86
2020/12/25 03:00:00;;;;;;;;;;;;;;;7.59;57.02;101046.03;6025343;23;98089;-84
2020/12/25 03:02:26;;;;;;;;;;;;;;;7.94;54.75;101045.38;6021622;23;101397;-86
2020/12/25 03:04:52;;;;;;;;;;;;;;;7.82;54.61;101046.47;6023747;23;96581;-87
2020/12/25 03:07:18;;;;;;;;;;;;;;;8.12;54.15;101052.03;6022748;23;96443;-86
2020/12/25 03:09:44;;;;;;;;;;;;;;;8.21;53.31;101047.41;6018586;23;96920;-84
2020/12/25 03:12:10;;;;;;;;;;;;;;;7.47;55.99;101041.88;6021479;23;100754;-86
2020/12/25 03:14:36;;;;;;;;;;;;;;;7.62;54.83;101045.97;6018871;23;97317;-88
2020/12/25 03:17:02;;;;;;;;;;;;;;;7.94;54.58;101054.09;6007005;23;96957;-86
2020/12/25 03:19:28;;;;;;;;;;;;;;;8.38;53.35;101052.38;6004183;23;101678;-83
2020/12/25 03:21:54;;;;;;;;;;;;;;;7.31;56.59;101060.56;6003477;23;98862;-84
2020/12/25 03:24:20;;;;;;;;;;;;;;;7.53;56.55;101052.28;6002958;23;96908;-86
2020/12/25 03:26:46;;;;;;;;;;;;;;;7.33;57.20;101059.66;6004284;23;96960;-85
2020/12/25 03:29:12;;;;;;;;;;;;;;;7.74;55.92;101058.91;6003367;23;98090;-85
2020/12/25 03:31:38;;;;;;;;;;;;;;;7.85;55.59;101058.69;6002586;23;97880;-84
2020/12/25 03:34:04;;;;;;;;;;;;;;;7.70;55.55;101064.25;6004000;23;97138;-85
2020/12/25 03:36:30;;;;;;;;;;;;;;;7.68;55.44;101056.38;6003169;23;96775;-84
2020/12/25 03:38:56;;;;;;;;;;;;;;;7.47;56.30;101062.06;6002003;23;97911;-85
2020/12/25 03:41:22;;;;;;;;;;;;;;;7.69;55.59;101063.38;6003051;23;97512;-85
2020/12/25 03:43:48;;;;;;;;;;;;;;;8.48;54.57;101072.34;6002605;23;97161;-85
2020/12/25 03:46:14;;;;;;;;;;;;;;;7.96;55.17;101075.13;6002249;23;96883;-85
2020/12/25 03:48:40;;;;;;;;;;;;;;;7.28;57.13;101077.28;6002068;23;97973;-85
2020/12/25 03:51:06;;;;;;;;;;;;;;;8.29;54.84;101081.50;6002570;23;98842;-85
2020/12/25 03:53:32;;;;;;;;;;;;;;;8.61;54.90;101083.47;6011929;23;97502;-84
2020/12/25 03:55:58;;;;;;;;;;;;;;;8.54;53.75;101077.47;6009353;23;96661;-85
2020/12/25 03:58:23;;;;;;;;;;;;;;;8.11;54.86;101079.25;6005854;23;101195;-85
2020/12/25 04:00:49;;;;;;;;;;;;;;;7.27;57.67;101079.94;6021578;23;99096;-84
2020/12/25 04:03:16;;;;;;;;;;;;;;;7.74;56.91;101085.22;6026874;23;96694;-86
2020/12/25 04:05:42;;;;;;;;;;;;;;;7.48;57.72;101092.72;6026781;23;96610;-84
2020/12/25 04:08:08;;;;;;;;;;;;;;;7.48;58.21;101093.56;6018516;23;97848;-84
2020/12/25 04:10:34;;;;;;;;;;;;;;;7.36;59.11;101090.28;6015873;23;102074;-84
2020/12/25 04:13:00;;;;;;;;;;;;;;;7.07;59.51;101094.25;6018845;23;96342;-85
2020/12/25 04:15:26;;;;;;;;;;;;;;;7.22;59.27;101097.53;6019398;23;96623;-84
2020/12/25 04:17:51;;;;;;;;;;;;;;;7.26;59.42;101105.34;6021400;23;99446;-84
2020/12/25 04:20:18;;;;;;;;;;;;;;;7.37;59.50;101111.28;6014675;23;97704;-85
2020/12/25 04:22:44;;;;;;;;;;;;;;;7.37;59.30;101108.66;6003658;23;96712;-84
2020/12/25 04:25:09;;;;;;;;;;;;;;;7.43;59.68;101108.53;6004862;23;96737;-85
2020/12/25 04:27:35;;;;;;;;;;;;;;;7.18;59.37;101117.72;6001174;23;98237;-85
2020/12/25 04:30:01;;;;;;;;;;;;;;;6.75;61.12;101126.25;6002847;23;99622;-85
2020/12/25 04:32:27;;;;;;;;;;;;;;;7.11;59.94;101131.84;6005173;23;96778;-83
2020/12/25 04:34:53;;;;;;;;;;;;;;;7.41;59.26;101128.75;6001292;23;96820;-85
2020/12/25 04:37:19;;;;;;;;;;;;;;;7.87;57.68;101127.97;6000540;23;100389;-84
2020/12/25 04:39:45;;;;;;;;;;;;;;;8.53;56.24;101128.44;6000415;23;98861;-84
2020/12/25 04:42:11;;;;;;;;;;;;;;;7.76;58.24;101138.66;6001442;23;96774;-84
2020/12/25 04:44:37;;;;;;;;;;;;;;;7.75;58.02;101146.56;6003976;23;96869;-83
2020/12/25 04:47:10;;;;;;;;;;;;;;;7.27;59.40;101151.78;6012760;23;98103;-83
2020/12/25 04:49:36;;;;;;;;;;;;;;;6.99;61.88;101160.94;6015185;23;99006;-84
2020/12/25 04:52:02;;;;;;;;;;;;;;;6.73;63.06;101156.91;6011040;23;96649;-84
2020/12/25 04:54:29;;;;;;;;;;;;;;;7.18;61.75;101158.03;6003958;23;97416;-84
2020/12/25 04:56:58;;;;;;;;;;;;;;;6.77;63.41;101165.63;6004918;23;99111;-84
2020/12/25 04:59:24;;;;;;;;;;;;;;;7.73;60.57;101158.91;6012133;23;100105;-84
2020/12/25 05:01:52;;;;;;;;;;;;;;;7.57;60.95;101163.53;6015966;23;96757;-83
2020/12/25 05:04:18;;;;;;;;;;;;;;;7.01;61.88;101161.81;6012691;23;97093;-82
2020/12/25 05:06:46;;;;;;;;;;;;;;;7.42;61.60;101158.53;6010732;23;99766;-84
2020/12/25 05:09:14;;;;;;;;;;;;;;;7.95;58.68;101154.97;6011182;23;99203;-84
2020/12/25 05:11:41;;;;;;;;;;;;;;;6.98;60.83;101172.34;6014847;23;96609;-83
2020/12/25 05:14:07;;;;;;;;;;;;;;;7.28;60.90;101174.53;6012781;23;96816;-83
2020/12/25 05:16:33;;;;;;;;;;;;;;;7.44;60.42;101178.66;6005794;23;98132;-84
2020/12/25 05:19:00;;;;;;;;;;;;;;;7.54;59.26;101179.38;6001728;23;97776;-85
2020/12/25 05:21:25;;;;;;;;;;;;;;;7.17;59.95;101182.56;6003811;23;97024;-85
2020/12/25 05:23:53;;;;;;;;;;;;;;;6.90;60.09;101189.97;6005547;23;96758;-85
2020/12/25 05:26:19;;;;;;;;;;;;;;;7.05;59.91;101189.75;6004534;23;100021;-85
2020/12/25 05:28:48;;;;;;;;;;;;;;;7.54;58.09;101179.38;6001915;23;99150;-84
2020/12/25 05:31:15;;;;;;;;;;;;;;;7.56;57.22;101188.09;6002658;23;96999;-85
2020/12/25 05:33:41;;;;;;;;;;;;;;;8.21;55.87;101191.34;6006591;23;96772;-83
2020/12/25 05:36:08;;;;;;;;;;;;;;;7.41;57.09;101198.88;5982135;23;97429;-84
2020/12/25 05:38:36;;;;;;;;;;;;;;;7.34;58.18;101206.00;6001837;23;97044;-83
2020/12/25 05:41:02;;;;;;;;;;;;;;;7.19;58.57;101203.56;6002976;23;96790;-84
2020/12/25 05:43:28;;;;;;;;;;;;;;;7.20;58.69;101208.81;6006753;23;96896;-82
2020/12/25 05:45:55;;;;;;;;;;;;;;;7.63;57.29;101199.38;6002917;23;96861;-83
2020/12/25 05:48:21;;;;;;;;;;;;;;;8.17;55.70;101203.72;5999554;23;101329;-82
2020/12/25 05:50:47;;;;;;;;;;;;;;;8.39;55.20;101210.34;5974768;23;96877;-83
2020/12/25 05:53:13;;;;;;;;;;;;;;;7.61;56.87;101218.69;5999320;23;97237;-84
2020/12/25 05:55:39;;;;;;;;;;;;;;;8.19;55.65;101209.81;5999250;23;98132;-83
2020/12/25 05:58:05;;;;;;;;;;;;;;;8.47;56.11;101218.06;5998263;23;98180;-83
2020/12/25 06:00:31;;;;;;;;;;;;;;;8.56;54.99;101228.44;5999580;23;97529;-84
2020/12/25 06:02:58;;;;;;;;;;;;;;;8.84;54.67;101227.91;5999935;23;96868;-84
2020/12/25 06:05:25;;;;;;;;;;;;;;;9.08;54.40;101237.91;5999470;23;99047;-84
2020/12/25 06:07:52;;;;;;;;;;;;;;;9.04;54.32;101250.31;6000233;23;99212;-83
2020/12/25 06:10:19;;;;;;;;;;;;;;;8.55;55.55;101246.91;5999548;23;97437;-84
2020/12/25 06:12:45;;;;;;;;;;;;;;;8.76;55.70;101247.38;5999399;23;97427;-85
2020/12/25 06:15:12;;;;;;;;;;;;;;;8.80;55.55;101248.16;5998672;23;101376;-83
2020/12/25 06:17:41;;;;;;;;;;;;;;;8.69;56.14;101250.16;5999533;23;100855;-84
2020/12/25 06:20:11;;;;;;;;;;;;;;;8.63;56.62;101260.81;5999974;23;96986;-84
2020/12/25 06:22:38;;;;;;;;;;;;;;;8.69;55.85;101260.69;6004370;23;97295;-84
2020/12/25 06:25:07;;;;;;;;;;;;;;;7.60;59.86;101274.84;5999509;23;100206;-84
2020/12/25 06:27:33;;;;;;;;;;;;;;;8.29;57.37;101263.16;6000584;23;99470;-85
2020/12/25 06:30:00;;;;;;;;;;;;;;;8.70;56.00;101273.84;6000573;23;96971;-84
2020/12/25 06:32:26;;;;;;;;;;;;;;;8.63;56.31;101282.75;6000357;23;96771;-83
2020/12/25 06:34:53;;;;;;;;;;;;;;;8.82;56.01;101278.00;6000269;23;98169;-84
2020/12/25 06:37:20;;;;;;;;;;;;;;;8.73;55.38;101272.88;6000973;23;98346;-84
2020/12/25 06:39:49;;;;;;;;;;;;;;;8.41;56.99;101278.78;6001159;23;96994;-84
2020/12/25 06:42:20;;;;;;;;;;;;;;;8.75;56.21;101279.00;6000791;23;97096;-84
2020/12/25 06:44:48;;;;;;;;;;;;;;;8.78;56.08;101278.97;6000914;23;99341;-84
2020/12/25 06:47:26;;;;;;;;;;;;;;;8.86;55.41;101284.94;6005532;23;101558;-84
2020/12/25 06:49:51;;;;;;;;;;;;;;;8.78;56.21;101282.47;6011777;23;97529;-84
2020/12/25 06:52:25;;;;;;;;;;;;;;;8.95;56.22;101287.38;6012641;23;96773;-84
2020/12/25 06:54:51;;;;;;;;;;;;;;;9.17;55.41;101290.47;6017705;23;99438;-84
2020/12/25 06:57:17;;;;;;;;;;;;;;;8.56;56.39;101293.44;6025028;23;100638;-84
2020/12/25 06:59:47;;;;;;;;;;;;;;;8.18;57.41;101299.34;6025490;23;96724;-82
2020/12/25 07:02:14;;;;;;;;;;;;;;;8.26;57.91;101293.06;6000317;23;96430;-84
2020/12/25 07:04:43;;;;;;;;;;;;;;;7.85;58.94;101306.91;6021022;23;98168;-84
2020/12/25 07:07:09;;;;;;;;;;;;;;;8.17;57.94;101302.88;6024075;23;96563;-84
2020/12/25 07:09:36;;;;;;;;;;;;;;;7.50;60.21;101306.53;6023399;23;97169;-84
2020/12/25 07:12:04;;;;;;;;;;;;;;;7.32;60.99;101315.56;6022083;23;96741;-84
2020/12/25 07:14:30;;;;;;;;;;;;;;;7.52;59.76;101316.16;6022616;23;98141;-83
2020/12/25 07:16:56;;;;;;;;;;;;;;;8.00;58.99;101326.84;6007982;23;98107;-84
2020/12/25 07:19:22;;;;;;;;;;;;;;;7.94;58.27;101326.94;6001311;23;96777;-85
2020/12/25 07:21:47;;;;;;;;;;;;;;;8.62;56.45;101324.94;6001936;23;97214;-85
2020/12/25 07:24:14;;;;;;;;;;;;;;;8.23;57.15;101327.31;6001016;23;99002;-84
2020/12/25 07:26:40;;;;;;;;;;;;;;;8.76;55.39;101328.19;6000635;23;99146;-83
2020/12/25 07:29:12;;;;;;;;;;;;;;;8.33;56.63;101334.22;6000544;23;97137;-83
2020/12/25 07:31:38;;;;;;;;;;;;;;;8.72;55.42;101331.78;6000238;23;96993;-85
2020/12/25 07:34:04;;;;;;;;;;;;;;;8.80;54.83;101329.84;6000391;23;99507;-85
2020/12/25 07:36:30;;;;;;;;;;;;;;;8.26;56.83;101340.47;5999583;23;97872;-84
2020/12/25 07:38:59;;;;;;;;;;;;;;;8.56;55.92;101339.09;6001682;23;96754;-84
2020/12/25 07:41:25;;;;;;;;;;;;;;;8.31;56.17;101336.00;6002684;23;96729;-86
2020/12/25 07:43:55;;;;;;;;;;;;;;;8.13;57.08;101345.94;6002751;23;98110;-85
2020/12/25 07:46:20;;;;;;;;;;;;;;;8.66;55.10;101350.34;6002591;23;97753;-86
2020/12/25 07:48:46;;;;;;;;;;;;;;;9.13;53.47;101352.91;6001176;23;97081;-85
2020/12/25 07:51:13;;;;;;;;;;;;;;;9.01;53.64;101352.28;6003150;23;97261;-85
2020/12/25 07:53:48;;;;;;;;;;;;;;;8.73;54.73;101354.56;6000592;23;98089;-85
2020/12/25 07:56:14;;;;;;;;;;;;;;;8.98;54.66;101366.41;6000070;23;98951;-84
2020/12/25 07:58:40;;;;;;;;;;;;;;;8.68;55.01;101369.59;5999727;23;97127;-85
2020/12/25 08:01:08;;;;;;;;;;;;;;;8.96;53.38;101362.06;6001703;23;96881;-86
2020/12/25 08:03:34;;;;;;;;;;;;;;;9.28;52.97;101364.94;6000971;23;99225;-86
2020/12/25 08:06:01;;;;;;;;;;;;;;;9.06;53.16;101375.03;6000275;23;99132;-86
2020/12/25 08:08:27;;;;;;;;;;;;;;;8.75;53.79;101382.63;6000881;23;96782;-86
2020/12/25 08:10:54;;;;;;;;;;;;;;;8.79;53.80;101379.03;6001568;23;97270;-85
2020/12/25 08:13:20;;;;;;;;;;;;;;;8.25;55.16;101388.75;5999164;23;99660;-85
2020/12/25 08:15:46;;;;;;;;;;;;;;;8.64;54.14;101389.88;6001455;23;97752;-84
2020/12/25 08:18:13;;;;;;;;;;;;;;;8.85;53.09;101391.28;6012186;23;97252;-84
2020/12/25 08:20:39;;;;;;;;;;;;;;;8.99;53.46;101386.59;6018026;23;96777;-85
2020/12/25 08:23:16;;;;;;;;;;;;;;;8.90;52.67;101393.81;6003481;23;97819;-85
2020/12/25 08:25:42;;;;;;;;;;;;;;;9.03;52.77;101405.88;6001076;23;99279;-84
2020/12/25 08:28:08;;;;;;;;;;;;;;;8.71;53.92;101404.69;6000183;23;97239;-84
2020/12/25 08:30:36;;;;;;;;;;;;;;;9.04;52.16;101400.56;6002594;23;97679;-84
2020/12/25 08:33:01;;;;;;;;;;;;;;;9.37;51.83;101392.91;6001488;23;98523;-84
2020/12/25 08:35:29;;;;;;;;;;;;;;;9.48;51.44;101397.03;6001156;23;100913;-85
2020/12/25 08:37:56;;;;;;;;;;;;;;;8.94;52.71;101403.38;6000682;23;97290;-85
2020/12/25 08:40:22;;;;;;;;;;;;;;;8.33;53.92;101405.34;6000949;23;96830;-83
2020/12/25 08:42:48;;;;;;;;;;;;;;;8.49;54.17;101410.31;6001078;23;98145;-84
2020/12/25 08:45:18;;;;;;;;;;;;;;;8.01;55.01;101408.38;6000763;23;98775;-85
2020/12/25 08:47:44;;;;;;;;;;;;;;;8.48;53.79;101412.09;5999935;23;97215;-84
2020/12/25 08:50:10;;;;;;;;;;;;;;;8.96;52.68;101420.94;5999813;23;97608;-85
2020/12/25 08:52:37;;;;;;;;;;;;;;;8.98;53.48;101421.78;6000329;23;99425;-84
2020/12/25 08:55:03;;;;;;;;;;;;;;;8.46;53.95;101426.19;6001490;23;99187;-84
2020/12/25 08:57:30;;;;;;;;;;;;;;;8.53;54.56;101430.47;6000404;23;97027;-84
2020/12/25 09:00:00;;;;;;;;;;;;;;;8.97;52.70;101430.56;6004527;23;96972;-85
2020/12/25 09:02:26;;;;;;;;;;;;;;;8.98;52.69;101431.44;6005534;23;98737;-85
2020/12/25 09:04:52;;;;;;;;;;;;;;;8.99;52.15;101428.75;6016336;23;99310;-86
2020/12/25 09:07:18;;;;;;;;;;;;;;;8.94;52.93;101435.00;6025130;23;96232;-85
2020/12/25 09:09:44;;;;;;;;;;;;;;;8.04;55.55;101439.06;6020851;23;97291;-85
2020/12/25 09:12:10;;;;;;;;;;;;;;;8.49;54.28;101439.31;6018312;23;97174;-85
2020/12/25 09:14:36;;;;;;;;;;;;;;;9.07;53.10;101434.78;6019144;23;96789;-85
2020/12/25 09:17:02;;;;;;;;;;;;;;;9.10;52.00;101433.84;6024216;23;96844;-85
2020/12/25 09:19:28;;;;;;;;;;;;;;;9.05;51.96;101441.00;6026130;23;95977;-85
2020/12/25 09:21:54;;;;;;;;;;;;;;;9.45;51.78;101438.47;6022060;23;98269;-84
2020/12/25 09:24:23;;;;;;;;;;;;;;;9.39;52.12;101433.28;6027955;23;98760;-85
2020/12/25 09:26:50;;;;;;;;;;;;;;;9.27;52.22;101449.34;6029562;23;96414;-84
2020/12/25 09:29:16;;;;;;;;;;;;;;;9.57;51.79;101454.03;6022560;23;96595;-85
2020/12/25 09:31:41;;;;;;;;;;;;;;;9.52;51.64;101454.13;6023340;23;96871;-84
2020/12/25 09:34:07;;;;;;;;;;;;;;;9.19;51.91;101458.28;6024714;23;99165;-85
2020/12/25 09:36:33;;;;;;;;;;;;;;;9.57;50.95;101457.56;6026242;23;96368;-85
2020/12/25 09:38:59;;;;;;;;;;;;;;;9.01;51.69;101455.09;6023324;23;96577;-85
2020/12/25 09:41:25;;;;;;;;;;;;;;;9.39;50.36;101449.97;6026174;23;96826;-85
2020/12/25 09:43:51;;;;;;;;;;;;;;;9.47;50.97;101457.75;6024886;23;97786;-86
2020/12/25 09:46:17;;;;;;;;;;;;;;;8.34;53.50;101459.72;6024900;23;96627;-84
2020/12/25 09:48:43;;;;;;;;;;;;;;;8.77;52.45;101459.03;6025283;23;96629;-85
2020/12/25 09:51:09;;;;;;;;;;;;;;;8.77;52.42;101459.03;6022443;23;100085;-83
2020/12/25 09:53:35;;;;;;;;;;;;;;;8.72;52.62;101456.50;6010450;23;97645;-83
2020/12/25 09:56:01;;;;;;;;;;;;;;;9.45;50.71;101452.50;6020594;23;96521;-82
2020/12/25 09:58:27;;;;;;;;;;;;;;;9.01;51.24;101461.25;6023057;23;96783;-83
2020/12/25 10:00:54;;;;;;;;;;;;;;;8.61;52.75;101458.41;6025419;23;98900;-83
2020/12/25 10:03:20;;;;;;;;;;;;;;;9.03;50.87;101461.22;6025929;23;98353;-84
2020/12/25 10:05:46;;;;;;;;;;;;;;;8.89;51.74;101461.47;6027049;23;96311;-83
2020/12/25 10:08:12;;;;;;;;;;;;;;;9.46;50.82;101461.28;6026096;23;96662;-84
2020/12/25 10:10:38;;;;;;;;;;;;;;;9.54;50.69;101462.00;6025025;23;101443;-83
2020/12/25 10:13:05;;;;;;;;;;;;;;;9.09;50.68;101461.13;6020937;23;96501;-84
2020/12/25 10:15:31;;;;;;;;;;;;;;;9.41;50.29;101463.16;6011382;23;97362;-83
2020/12/25 10:17:58;;;;;;;;;;;;;;;9.46;50.48;101463.91;6012125;23;96669;-82
2020/12/25 10:20:23;;;;;;;;;;;;;;;9.04;51.27;101466.47;6008450;23;99377;-83
2020/12/25 10:22:49;;;;;;;;;;;;;;;9.44;50.42;101469.25;6008714;23;98803;-82
2020/12/25 10:25:15;;;;;;;;;;;;;;;9.17;51.04;101465.34;6007371;23;96718;-83
2020/12/25 10:27:41;;;;;;;;;;;;;;;9.78;49.70;101468.56;6007685;23;96541;-84
2020/12/25 10:30:07;;;;;;;;;;;;;;;9.68;49.37;101470.53;6009424;23;99267;-83
2020/12/25 10:32:33;;;;;;;;;;;;;;;9.85;49.20;101468.38;6009223;23;97795;-85
2020/12/25 10:35:00;;;;;;;;;;;;;;;9.73;48.86;101468.66;6006830;23;96799;-85
2020/12/25 10:37:25;;;;;;;;;;;;;;;9.51;49.71;101473.50;6006665;23;96824;-84
2020/12/25 10:39:51;;;;;;;;;;;;;;;9.80;48.18;101477.31;6006871;23;98772;-83
2020/12/25 10:42:17;;;;;;;;;;;;;;;9.56;49.22;101490.09;6003592;23;99259;-83
2020/12/25 10:44:43;;;;;;;;;;;;;;;9.16;49.30;101484.72;6005112;23;96699;-83
2020/12/25 10:47:09;;;;;;;;;;;;;;;9.74;48.44;101480.94;6004842;23;96720;-85
2020/12/25 10:49:35;;;;;;;;;;;;;;;9.96;47.97;101484.88;6005263;23;97704;-84
2020/12/25 10:52:02;;;;;;;;;;;;;;;9.92;47.78;101479.69;6008691;23;98164;-84
2020/12/25 10:54:28;;;;;;;;;;;;;;;9.36;49.74;101486.97;6008246;23;96713;-85
2020/12/25 10:56:54;;;;;;;;;;;;;;;9.55;49.44;101492.78;6005351;23;97004;-83
2020/12/25 10:59:20;;;;;;;;;;;;;;;9.79;48.60;101484.34;6003471;23;99178;-83
2020/12/25 11:01:48;;;;;;;;;;;;;;;10.16;47.27;101483.59;6004572;23;100552;-84
2020/12/25 11:04:14;;;;;;;;;;;;;;;9.85;48.43;101497.41;6005396;23;96699;-83
2020/12/25 11:06:40;;;;;;;;;;;;;;;9.59;48.25;101491.78;6004174;23;96984;-84
2020/12/25 11:09:08;;;;;;;;;;;;;;;9.58;48.21;101498.00;6004708;23;97751;-84
2020/12/25 11:11:34;;;;;;;;;;;;;;;9.65;48.05;101498.75;6006864;23;98906;-84
2020/12/25 11:14:01;;;;;;;;;;;;;;;9.09;49.02;101498.03;6007281;23;97209;-84
2020/12/25 11:16:27;;;;;;;;;;;;;;;9.27;49.08;101499.44;6004763;23;96842;-82
2020/12/25 11:18:53;;;;;;;;;;;;;;;9.73;48.16;101513.50;6004795;23;99389;-83
2020/12/25 11:21:19;;;;;;;;;;;;;;;9.80;47.36;101494.00;6007999;23;99166;-83
2020/12/25 11:23:45;;;;;;;;;;;;;;;10.16;46.63;101502.06;6012361;23;96728;-82
2020/12/25 11:26:21;;;;;;;;;;;;;;;9.86;47.69;101499.16;6012763;23;96861;-83
2020/12/25 11:28:47;;;;;;;;;;;;;;;10.18;47.24;101489.72;6022385;23;96985;-84
2020/12/25 11:31:13;;;;;;;;;;;;;;;10.39;46.89;101491.88;6018710;23;98190;-82
2020/12/25 11:33:39;;;;;;;;;;;;;;;10.03;46.95;101497.97;6009041;23;96849;-83
2020/12/25 11:36:05;;;;;;;;;;;;;;;9.91;47.46;101499.09;6006373;23;96942;-82
2020/12/25 11:38:31;;;;;;;;;;;;;;;8.80;49.75;101501.13;6003046;23;98059;-83
2020/12/25 11:40:57;;;;;;;;;;;;;;;8.73;49.99;101499.50;6003157;23;98910;-83
2020/12/25 11:43:24;;;;;;;;;;;;;;;9.08;50.17;101506.81;6005557;23;96891;-84
2020/12/25 11:45:49;;;;;;;;;;;;;;;8.45;51.43;101514.88;6005943;23;96897;-83
2020/12/25 11:48:15;;;;;;;;;;;;;;;9.06;49.91;101514.75;6006455;23;96984;-83
2020/12/25 11:50:41;;;;;;;;;;;;;;;9.36;49.79;101512.47;6007156;23;101350;-83
2020/12/25 11:53:07;;;;;;;;;;;;;;;9.11;49.76;101509.44;6007249;23;97014;-82
2020/12/25 11:55:33;;;;;;;;;;;;;;;9.36;48.81;101507.22;6006151;23;97435;-85
2020/12/25 11:57:58;;;;;;;;;;;;;;;9.64;47.98;101511.06;6016817;23;98983;-82
2020/12/25 12:00:25;;;;;;;;;;;;;;;9.48;48.35;101502.56;6025063;23;98759;-82
2020/12/25 12:02:51;;;;;;;;;;;;;;;9.48;48.72;101502.56;6023747;23;96377;-83
2020/12/25 12:05:17;;;;;;;;;;;;;;;10.05;47.53;101499.66;5998118;23;96756;-84
2020/12/25 12:07:43;;;;;;;;;;;;;;;9.73;47.41;101497.69;6008682;23;99132;-84
2020/12/25 12:10:09;;;;;;;;;;;;;;;9.18;48.40;101506.66;6015760;23;98804;-83
2020/12/25 12:12:35;;;;;;;;;;;;;;;9.36;48.67;101510.72;6019412;23;96949;-82
2020/12/25 12:15:01;;;;;;;;;;;;;;;9.76;47.14;101505.56;6009082;23;96978;-82
2020/12/25 12:17:27;;;;;;;;;;;;;;;9.81;45.80;101506.31;6002133;23;101520;-83
2020/12/25 12:19:53;;;;;;;;;;;;;;;9.66;46.15;101503.97;6002211;23;99220;-83
2020/12/25 12:22:20;;;;;;;;;;;;;;;9.13;46.97;101510.25;6009980;23;96686;-83
2020/12/25 12:24:46;;;;;;;;;;;;;;;9.68;47.06;101503.94;6007555;23;97237;-81
2020/12/25 12:27:12;;;;;;;;;;;;;;;9.29;47.29;101505.56;6001855;23;98883;-80
2020/12/25 12:29:37;;;;;;;;;;;;;;;9.65;46.83;101510.16;6003587;23;96734;-83
2020/12/25 12:32:03;;;;;;;;;;;;;;;9.74;46.93;101509.97;6006299;23;96712;-83
2020/12/25 12:34:30;;;;;;;;;;;;;;;8.65;48.19;101517.22;6009339;23;96841;-79
2020/12/25 12:36:56;;;;;;;;;;;;;;;9.04;47.96;101519.19;6005919;23;100795;-83
2020/12/25 12:39:22;;;;;;;;;;;;;;;9.05;47.40;101518.31;6008911;23;97805;-83
2020/12/25 12:41:50;;;;;;;;;;;;;;;9.37;46.92;101515.09;5985033;23;96797;-85